createdAt,value
2019-01-29T19:11:00.514Z,92.60
2019-01-29T19:13:29.857Z,92.70
2019-01-29T19:15:58.907Z,92.70
2019-01-29T19:18:28.271Z,92.60
2019-01-29T19:21:01.782Z,92.60
2019-01-29T19:23:30.909Z,92.70
2019-01-29T19:25:59.972Z,92.60
2019-01-29T19:28:29.032Z,92.80
2019-01-29T19:30:58.124Z,92.90
2019-01-29T19:33:27.213Z,92.70
2019-01-29T19:35:56.270Z,92.60
2019-01-29T19:38:25.334Z,92.70
2019-01-29T19:40:54.766Z,92.60
2019-01-29T19:43:24.063Z,92.60
2019-01-29T19:45:53.115Z,92.70
2019-01-29T19:48:22.178Z,92.40
2019-01-29T19:50:51.232Z,92.40
2019-01-29T19:53:20.316Z,92.30
2019-01-29T19:55:49.381Z,92.30
2019-01-29T19:58:18.445Z,92.30
2019-01-29T20:00:47.499Z,92.10
2019-01-29T20:03:16.749Z,92.20
2019-01-29T20:05:45.798Z,92.20
2019-01-29T20:08:14.855Z,92.20
2019-01-29T20:10:43.916Z,92.00
2019-01-29T20:13:12.986Z,92.00
2019-01-29T20:15:42.366Z,92.00
2019-01-29T20:18:11.418Z,91.80
2019-01-29T20:20:41.811Z,91.90
2019-01-29T20:23:10.869Z,91.90
2019-01-29T20:25:39.923Z,91.70
2019-01-29T20:28:08.989Z,91.60
2019-01-29T20:30:40.048Z,91.40
2019-01-29T20:33:09.186Z,91.60
2019-01-29T20:35:38.234Z,91.40
2019-01-29T20:38:07.289Z,91.40
2019-01-29T20:40:36.342Z,91.00
2019-01-29T20:43:05.394Z,91.20
2019-01-29T20:45:34.442Z,91.10
2019-01-29T20:48:03.499Z,91.00
2019-01-29T20:50:35.751Z,90.90
2019-01-29T20:53:04.797Z,90.90
2019-01-29T20:55:33.845Z,90.80
2019-01-29T20:58:02.895Z,90.80
2019-01-29T21:00:37.943Z,90.80
2019-01-29T21:03:07.018Z,90.70
2019-01-29T21:05:36.071Z,90.70
2019-01-29T21:08:05.189Z,90.80
2019-01-29T21:10:34.242Z,90.70
2019-01-29T21:13:03.292Z,90.60
2019-01-29T21:15:38.593Z,90.80
2019-01-29T21:18:03.126Z,90.70
2019-01-29T21:20:33.122Z,90.70
2019-01-29T21:23:02.171Z,90.80
2019-01-29T21:25:31.221Z,90.60
2019-01-29T21:28:00.337Z,90.80
2019-01-29T21:30:35.237Z,90.80
2019-01-29T21:33:04.295Z,90.80
2019-01-29T21:35:33.337Z,90.70
2019-01-29T21:38:02.403Z,90.80
2019-01-29T21:40:31.462Z,91.00
2019-01-29T21:43:01.662Z,91.00
2019-01-29T21:45:30.714Z,91.10
2019-01-29T21:48:01.197Z,91.00
2019-01-29T21:50:35.121Z,91.10
2019-01-29T21:53:04.170Z,91.20
2019-01-29T21:55:33.228Z,91.10
2019-01-29T21:58:02.280Z,91.00
2019-01-29T22:00:40.209Z,90.90
2019-01-29T22:03:09.447Z,90.90
2019-01-29T22:05:38.482Z,91.10
2019-01-29T22:08:08.275Z,91.20
2019-01-29T22:10:37.302Z,91.00
2019-01-29T22:13:07.654Z,91.10
2019-01-29T22:15:36.710Z,91.10
2019-01-29T22:18:06.671Z,91.00
2019-01-29T22:20:35.727Z,91.10
2019-01-29T22:23:04.779Z,91.10
2019-01-29T22:25:35.743Z,91.20
2019-01-29T22:28:05.247Z,91.20
2019-01-29T22:30:40.125Z,91.30
2019-01-29T22:33:09.182Z,91.20
2019-01-29T22:35:38.242Z,91.10
2019-01-29T22:38:07.293Z,91.00
2019-01-29T22:40:36.348Z,91.10
2019-01-29T22:43:05.687Z,91.20
2019-01-29T22:45:34.739Z,90.90
2019-01-29T22:48:04.590Z,91.00
2019-01-29T22:50:37.312Z,91.10
2019-01-29T22:53:06.455Z,91.10
2019-01-29T22:55:36.022Z,91.10
2019-01-29T22:58:05.984Z,91.20
2019-01-29T23:00:59.067Z,91.00
2019-01-29T23:03:32.809Z,91.00
2019-01-29T23:06:12.254Z,91.60
2019-01-29T23:08:44.034Z,91.20
2019-01-29T23:11:13.206Z,91.30
2019-01-29T23:13:42.404Z,91.30
2019-01-29T23:16:11.464Z,91.30
2019-01-29T23:18:40.514Z,91.40
2019-01-29T23:21:09.566Z,91.30
2019-01-29T23:23:38.615Z,91.50
2019-01-29T23:26:07.670Z,91.50
2019-01-29T23:28:36.723Z,91.40
2019-01-29T23:31:05.801Z,91.70
2019-01-29T23:33:36.024Z,91.60
2019-01-29T23:36:06.377Z,91.70
2019-01-29T23:38:35.616Z,91.50
2019-01-29T23:41:04.683Z,91.70
2019-01-29T23:43:33.736Z,91.70
2019-01-29T23:46:02.881Z,91.90
2019-01-29T23:48:31.925Z,91.70
2019-01-29T23:51:00.978Z,91.80
2019-01-29T23:53:30.040Z,91.90
2019-01-29T23:55:59.113Z,91.80
2019-01-29T23:58:28.191Z,91.90
